createdAt,value
2018-09-25T00:00:29.524Z,10.80
2018-09-25T00:03:04.048Z,10.90
2018-09-25T00:05:38.669Z,11.00
2018-09-25T00:08:13.161Z,11.00
2018-09-25T00:10:47.717Z,11.00
2018-09-25T00:13:22.236Z,11.10
2018-09-25T00:15:56.804Z,11.10
2018-09-25T00:18:31.249Z,11.10
2018-09-25T00:21:05.816Z,11.00
2018-09-25T00:23:40.256Z,10.80
2018-09-25T00:26:15.360Z,10.70
2018-09-25T00:28:50.012Z,10.60
2018-09-25T00:31:24.516Z,10.50
2018-09-25T00:33:59.213Z,10.40
2018-09-25T00:36:33.628Z,10.40
2018-09-25T00:39:08.172Z,10.60
2018-09-25T00:41:43.100Z,10.70
2018-09-25T00:44:17.681Z,10.70
2018-09-25T00:46:52.334Z,10.80
2018-09-25T00:49:26.795Z,10.70
2018-09-25T00:52:01.404Z,10.80
2018-09-25T00:54:35.875Z,10.70
2018-09-25T00:57:10.576Z,10.60
2018-09-25T00:59:46.141Z,10.60
2018-09-25T01:02:20.648Z,10.40
2018-09-25T01:04:55.296Z,10.30
2018-09-25T01:07:29.732Z,10.30
2018-09-25T01:10:04.293Z,10.40
2018-09-25T01:12:39.164Z,10.30
2018-09-25T01:15:13.635Z,10.20
2018-09-25T01:17:47.969Z,10.10
2018-09-25T01:20:22.584Z,10.10
2018-09-25T01:22:57.232Z,10.10
2018-09-25T01:25:31.739Z,10.00
2018-09-25T01:28:06.699Z,9.90
2018-09-25T01:30:41.243Z,9.80
2018-09-25T01:33:15.687Z,9.80
2018-09-25T01:35:50.407Z,9.70
2018-09-25T01:38:24.796Z,9.60
2018-09-25T01:40:59.180Z,9.60
2018-09-25T01:43:34.120Z,9.50
2018-09-25T01:46:08.625Z,9.60
2018-09-25T01:48:43.311Z,9.70
2018-09-25T01:51:17.785Z,9.70
2018-09-25T01:53:52.376Z,9.90
2018-09-25T01:56:26.756Z,10.00
2018-09-25T01:59:01.304Z,10.00
2018-09-25T02:01:35.768Z,9.90
2018-09-25T02:04:10.391Z,9.80
2018-09-25T02:06:44.849Z,9.70
2018-09-25T02:09:19.297Z,9.60
2018-09-25T02:11:53.908Z,9.60
2018-09-25T02:14:29.308Z,9.60
2018-09-25T02:17:03.796Z,9.60
2018-09-25T02:19:38.227Z,9.50
2018-09-25T02:22:12.848Z,9.50
2018-09-25T02:24:47.464Z,9.40
2018-09-25T02:27:21.828Z,9.30
2018-09-25T02:29:56.769Z,9.20
2018-09-25T02:32:31.316Z,9.10
2018-09-25T02:35:05.735Z,9.10
2018-09-25T02:37:40.800Z,9.10
2018-09-25T02:40:15.782Z,9.00
2018-09-25T02:42:50.256Z,8.90
2018-09-25T02:45:24.832Z,8.90
2018-09-25T02:47:59.412Z,8.80
2018-09-25T02:50:33.908Z,8.70
2018-09-25T02:53:08.508Z,8.70
2018-09-25T02:55:43.110Z,8.70
2018-09-25T02:58:17.576Z,8.70
2018-09-25T03:00:52.212Z,8.70
2018-09-25T03:03:26.756Z,8.60
2018-09-25T03:06:01.249Z,8.50
2018-09-25T03:08:35.673Z,8.60
2018-09-25T03:11:10.328Z,8.60
2018-09-25T03:13:44.797Z,8.70
2018-09-25T03:16:19.504Z,8.70
2018-09-25T03:18:53.954Z,8.70
2018-09-25T03:21:28.607Z,8.70
2018-09-25T03:24:03.143Z,8.80
2018-09-25T03:26:37.718Z,8.90
2018-09-25T03:29:12.520Z,8.80
2018-09-25T03:31:47.228Z,8.70
2018-09-25T03:34:21.700Z,8.60
2018-09-25T03:36:56.076Z,8.50
2018-09-25T03:39:30.837Z,8.50
2018-09-25T03:42:05.302Z,8.40
2018-09-25T03:44:39.744Z,8.40
2018-09-25T03:47:14.577Z,8.40
2018-09-25T03:49:49.102Z,8.40
2018-09-25T03:52:23.800Z,8.30
2018-09-25T03:54:58.160Z,8.30
2018-09-25T03:57:32.746Z,8.30
2018-09-25T04:00:07.236Z,8.30
2018-09-25T04:02:41.764Z,8.40
2018-09-25T04:05:16.198Z,8.40
2018-09-25T04:07:50.669Z,8.40
2018-09-25T04:10:25.228Z,8.40
2018-09-25T04:12:59.846Z,8.40
2018-09-25T04:15:34.287Z,8.30
2018-09-25T04:18:09.778Z,8.20
2018-09-25T04:20:44.465Z,8.10
2018-09-25T04:23:18.988Z,8.10
2018-09-25T04:25:53.425Z,8.00
2018-09-25T04:28:28.107Z,8.10
2018-09-25T04:31:02.600Z,8.10
2018-09-25T04:33:37.454Z,8.10
2018-09-25T04:36:12.219Z,8.20
2018-09-25T04:38:46.680Z,8.10
2018-09-25T04:41:21.716Z,8.10
2018-09-25T04:43:56.189Z,7.90
2018-09-25T04:46:30.681Z,7.90
2018-09-25T04:49:05.265Z,7.80
2018-09-25T04:51:39.713Z,7.90
2018-09-25T04:54:14.104Z,7.90
2018-09-25T04:56:48.600Z,7.80
2018-09-25T04:59:23.238Z,7.80
2018-09-25T05:01:57.701Z,7.80
2018-09-25T05:04:33.384Z,7.80
2018-09-25T05:07:07.817Z,7.80
2018-09-25T05:09:42.149Z,7.70
2018-09-25T05:12:16.624Z,7.70
2018-09-25T05:14:50.938Z,7.70
2018-09-25T05:17:25.384Z,7.80
2018-09-25T05:20:00.228Z,7.90
2018-09-25T05:22:34.604Z,7.90
2018-09-25T05:25:09.098Z,7.90
2018-09-25T05:27:43.700Z,7.90
2018-09-25T05:30:18.184Z,7.90
2018-09-25T05:32:52.720Z,7.90
2018-09-25T05:35:27.984Z,7.90
2018-09-25T05:38:02.535Z,7.90
2018-09-25T05:40:37.171Z,7.80
2018-09-25T05:43:12.331Z,8.00
2018-09-25T05:45:46.956Z,8.00
2018-09-25T05:48:21.484Z,8.00
2018-09-25T05:50:56.098Z,8.00
2018-09-25T05:53:30.582Z,7.90
2018-09-25T05:56:05.172Z,7.80
2018-09-25T05:58:39.541Z,7.90
2018-09-25T06:01:14.152Z,7.80
2018-09-25T06:03:48.565Z,7.90
2018-09-25T06:06:23.264Z,8.00
2018-09-25T06:08:57.756Z,8.00
2018-09-25T06:11:32.310Z,8.10
2018-09-25T06:14:06.816Z,8.10
2018-09-25T06:16:41.391Z,8.10
2018-09-25T06:19:15.893Z,8.10
2018-09-25T06:21:50.935Z,8.10
2018-09-25T06:24:25.577Z,8.10
2018-09-25T06:27:00.083Z,8.20
2018-09-25T06:29:34.524Z,8.20
2018-09-25T06:32:09.952Z,8.20
2018-09-25T06:34:44.505Z,8.30
2018-09-25T06:37:19.355Z,8.30
2018-09-25T06:39:53.641Z,8.30
2018-09-25T06:42:28.072Z,8.30
2018-09-25T06:45:03.032Z,8.30
2018-09-25T06:47:37.488Z,8.40
2018-09-25T06:50:11.985Z,8.40
2018-09-25T06:52:47.182Z,8.40
2018-09-25T06:55:21.902Z,8.50
2018-09-25T06:57:56.413Z,8.60
2018-09-25T07:00:31.000Z,8.60
2018-09-25T07:03:05.420Z,8.70
2018-09-25T07:05:40.001Z,8.80
2018-09-25T07:08:15.128Z,8.80
2018-09-25T07:10:49.441Z,8.70
2018-09-25T07:13:24.052Z,8.70
2018-09-25T07:15:58.620Z,8.70
2018-09-25T07:18:33.011Z,8.60
2018-09-25T07:21:07.448Z,8.60
2018-09-25T07:23:42.309Z,8.80
2018-09-25T07:26:16.688Z,8.90
2018-09-25T07:28:51.170Z,9.00
2018-09-25T07:31:25.952Z,9.10
2018-09-25T07:34:00.562Z,9.10
2018-09-25T07:36:35.305Z,9.10
2018-09-25T07:39:11.248Z,9.20
2018-09-25T07:41:46.316Z,9.20
2018-09-25T07:44:21.231Z,9.20
2018-09-25T07:46:56.169Z,9.20
2018-09-25T07:49:30.836Z,9.20
2018-09-25T07:52:05.302Z,9.20
2018-09-25T07:54:39.788Z,9.40
2018-09-25T07:57:14.316Z,9.50
2018-09-25T07:59:49.047Z,9.60
2018-09-25T08:02:23.588Z,9.60
2018-09-25T08:04:59.465Z,9.70
2018-09-25T08:07:37.881Z,9.70
2018-09-25T08:10:12.849Z,9.90
2018-09-25T08:12:47.504Z,9.90
2018-09-25T08:15:21.995Z,10.00
2018-09-25T08:17:56.592Z,10.00
2018-09-25T08:20:31.228Z,10.10
2018-09-25T08:23:05.893Z,10.20
2018-09-25T08:25:40.569Z,10.20
2018-09-25T08:28:15.332Z,10.20
2018-09-25T08:30:49.796Z,10.20
2018-09-25T08:33:24.385Z,10.30
2018-09-25T08:35:58.985Z,10.30
2018-09-25T08:38:33.725Z,10.40
2018-09-25T08:41:08.436Z,10.50
2018-09-25T08:43:42.909Z,10.60
2018-09-25T08:46:17.389Z,10.70
2018-09-25T08:48:52.109Z,10.80
2018-09-25T08:51:26.773Z,10.90
2018-09-25T08:54:01.145Z,10.90
2018-09-25T08:56:35.849Z,11.00
2018-09-25T08:59:10.284Z,11.00
2018-09-25T09:01:44.897Z,11.00
2018-09-25T09:04:19.330Z,11.00
2018-09-25T09:06:53.923Z,11.10
2018-09-25T09:09:28.665Z,11.10
2018-09-25T09:12:03.693Z,11.20
2018-09-25T09:14:38.185Z,11.30
2018-09-25T09:17:13.326Z,11.30
2018-09-25T09:19:48.022Z,11.40
2018-09-25T09:22:22.921Z,11.50
2018-09-25T09:24:57.384Z,11.60
2018-09-25T09:27:31.965Z,11.80
2018-09-25T09:30:06.489Z,11.90
2018-09-25T09:32:43.430Z,12.00
2018-09-25T09:35:17.799Z,12.00
2018-09-25T09:37:52.684Z,12.10
2018-09-25T09:40:27.292Z,12.20
2018-09-25T09:43:02.480Z,12.30
2018-09-25T09:45:37.043Z,12.30
2018-09-25T09:48:11.940Z,12.40
2018-09-25T09:50:46.792Z,12.50
2018-09-25T09:53:21.468Z,12.60
2018-09-25T09:55:55.928Z,12.70
2018-09-25T09:58:30.731Z,13.00
2018-09-25T10:01:05.216Z,13.30
2018-09-25T10:03:39.733Z,13.40
2018-09-25T10:06:14.321Z,13.60
2018-09-25T10:08:48.981Z,14.00
2018-09-25T10:11:23.475Z,14.90
2018-09-25T10:13:58.404Z,15.90
2018-09-25T10:16:32.764Z,16.90
2018-09-25T10:19:07.188Z,17.70
2018-09-25T10:21:41.918Z,18.20
2018-09-25T10:24:16.397Z,17.80
2018-09-25T10:26:51.158Z,17.70
2018-09-25T10:29:25.747Z,17.70
2018-09-25T10:32:00.289Z,17.70
2018-09-25T10:34:34.940Z,17.20
2018-09-25T10:37:09.441Z,16.50
2018-09-25T10:39:44.092Z,15.90
2018-09-25T10:42:18.445Z,15.40
2018-09-25T10:44:53.262Z,15.30
2018-09-25T10:47:27.680Z,16.10
2018-09-25T10:50:02.211Z,17.30
2018-09-25T10:52:36.968Z,18.10
2018-09-25T10:55:11.375Z,18.00
2018-09-25T10:57:45.896Z,17.60
2018-09-25T11:00:20.964Z,17.60
2018-09-25T11:02:55.641Z,18.30
2018-09-25T11:05:30.024Z,18.90
2018-09-25T11:08:05.560Z,19.50
2018-09-25T11:10:40.178Z,19.30
2018-09-25T11:13:14.727Z,18.60
2018-09-25T11:15:49.336Z,18.00
2018-09-25T11:18:23.833Z,17.40
2018-09-25T11:20:58.344Z,16.90
2018-09-25T11:23:33.688Z,16.60
2018-09-25T11:26:08.232Z,16.80
2018-09-25T11:28:43.069Z,18.30
2018-09-25T11:31:17.841Z,19.50
2018-09-25T11:33:52.332Z,20.50
2018-09-25T11:36:27.039Z,21.50
2018-09-25T11:39:01.594Z,22.30
2018-09-25T11:41:36.260Z,21.60
2018-09-25T11:44:10.788Z,20.60
2018-09-25T11:46:45.764Z,20.10
2018-09-25T11:49:20.276Z,19.60
2018-09-25T11:51:54.976Z,19.00
2018-09-25T11:54:29.709Z,18.60
2018-09-25T11:57:04.286Z,19.40
2018-09-25T11:59:38.818Z,21.10
2018-09-25T12:02:13.692Z,22.10
2018-09-25T12:04:49.232Z,21.30
2018-09-25T12:07:23.896Z,20.20
2018-09-25T12:09:58.452Z,19.30
2018-09-25T12:12:32.995Z,19.00
2018-09-25T12:15:07.402Z,20.20
2018-09-25T12:17:42.357Z,22.10
2018-09-25T12:20:16.795Z,23.90
2018-09-25T12:22:51.389Z,25.00
2018-09-25T12:25:25.938Z,25.80
2018-09-25T12:28:00.436Z,26.20
2018-09-25T12:30:36.043Z,26.60
2018-09-25T12:33:10.873Z,27.00
2018-09-25T12:35:45.503Z,27.20
2018-09-25T12:38:20.960Z,26.80
2018-09-25T12:40:55.615Z,26.50
2018-09-25T12:43:30.206Z,26.90
2018-09-25T12:46:04.632Z,27.00
2018-09-25T12:48:39.552Z,26.30
2018-09-25T12:51:15.007Z,25.30
2018-09-25T12:53:49.546Z,24.00
2018-09-25T12:56:24.161Z,22.80
2018-09-25T12:58:58.769Z,21.80
2018-09-25T13:01:33.377Z,22.40
2018-09-25T13:04:08.537Z,24.10
2018-09-25T13:06:43.116Z,26.00
2018-09-25T13:09:17.685Z,27.30
2018-09-25T13:11:52.192Z,28.20
2018-09-25T13:14:26.833Z,28.50
2018-09-25T13:17:01.286Z,28.00
2018-09-25T13:19:36.297Z,27.60
2018-09-25T13:22:10.743Z,26.30
2018-09-25T13:24:45.356Z,26.60
2018-09-25T13:27:19.838Z,27.50
2018-09-25T13:29:54.441Z,28.10
2018-09-25T13:32:28.813Z,29.00
2018-09-25T13:35:03.513Z,29.60
2018-09-25T13:37:37.933Z,29.10
2018-09-25T13:40:12.627Z,29.30
2018-09-25T13:42:47.229Z,29.90
2018-09-25T13:45:21.743Z,30.60
2018-09-25T13:47:56.336Z,31.00
2018-09-25T13:50:31.191Z,31.40
2018-09-25T13:53:05.826Z,31.60
2018-09-25T13:55:40.309Z,31.70
2018-09-25T13:58:15.073Z,32.00
2018-09-25T14:00:50.694Z,32.10
2018-09-25T14:03:25.289Z,32.10
2018-09-25T14:06:00.168Z,32.00
2018-09-25T14:08:34.744Z,31.60
2018-09-25T14:11:09.384Z,31.60
2018-09-25T14:13:43.871Z,30.70
2018-09-25T14:16:18.316Z,29.20
2018-09-25T14:18:52.760Z,27.50
2018-09-25T14:21:27.392Z,27.00
2018-09-25T14:24:01.848Z,27.60
2018-09-25T14:26:36.362Z,28.90
2018-09-25T14:29:10.979Z,29.90
2018-09-25T14:31:45.561Z,31.10
2018-09-25T14:34:20.160Z,31.90
2018-09-25T14:36:54.888Z,31.60
2018-09-25T14:39:29.564Z,30.70
2018-09-25T14:42:03.985Z,30.80
2018-09-25T14:44:38.455Z,31.20
2018-09-25T14:47:12.946Z,30.50
2018-09-25T14:49:47.428Z,29.00
2018-09-25T14:52:22.161Z,27.50
2018-09-25T14:54:56.647Z,27.20
2018-09-25T14:57:31.257Z,28.20
2018-09-25T15:00:05.856Z,29.40
2018-09-25T15:02:40.464Z,30.30
2018-09-25T15:05:14.944Z,31.00
2018-09-25T15:07:49.755Z,31.20
2018-09-25T15:10:24.237Z,31.30
2018-09-25T15:12:58.914Z,31.30
2018-09-25T15:15:33.708Z,31.20
2018-09-25T15:18:08.555Z,31.10
2018-09-25T15:20:43.919Z,30.90
2018-09-25T15:23:18.941Z,30.70
2018-09-25T15:25:53.585Z,30.60
2018-09-25T15:28:28.280Z,30.50
2018-09-25T15:31:02.986Z,30.20
2018-09-25T15:33:37.521Z,29.90
2018-09-25T15:36:12.108Z,29.60
2018-09-25T15:38:46.788Z,29.50
2018-09-25T15:41:21.363Z,29.50
2018-09-25T15:43:56.032Z,29.20
2018-09-25T15:46:30.698Z,29.20
2018-09-25T15:49:05.268Z,28.90
2018-09-25T15:51:40.043Z,28.20
2018-09-25T15:54:14.753Z,27.80
2018-09-25T15:56:49.260Z,27.00
2018-09-25T15:59:23.884Z,26.10
2018-09-25T16:01:58.335Z,25.30
2018-09-25T16:04:33.912Z,24.70
2018-09-25T16:07:08.400Z,24.20
2018-09-25T16:09:43.153Z,23.80
2018-09-25T16:12:17.763Z,23.50
2018-09-25T16:14:53.460Z,23.30
2018-09-25T16:17:28.002Z,23.20
2018-09-25T16:20:02.488Z,23.20
2018-09-25T16:22:36.905Z,23.10
2018-09-25T16:25:11.933Z,22.90
2018-09-25T16:27:48.037Z,22.50
2018-09-25T16:30:22.404Z,22.10
2018-09-25T16:32:56.828Z,21.90
2018-09-25T16:35:31.512Z,21.70
2018-09-25T16:38:06.109Z,21.40
2018-09-25T16:40:41.473Z,21.20
2018-09-25T16:43:15.998Z,21.00
2018-09-25T16:45:50.636Z,20.70
2018-09-25T16:48:25.131Z,20.60
2018-09-25T16:50:59.596Z,20.40
2018-09-25T16:53:34.049Z,20.20
2018-09-25T16:56:08.884Z,20.00
2018-09-25T16:58:43.332Z,19.80
2018-09-25T17:01:22.254Z,19.60
2018-09-25T17:03:56.848Z,19.50
2018-09-25T17:06:31.485Z,19.20
2018-09-25T17:09:06.155Z,19.10
2018-09-25T17:11:41.284Z,18.80
2018-09-25T17:14:15.838Z,18.50
2018-09-25T17:16:50.443Z,18.10
2018-09-25T17:19:26.118Z,17.80
2018-09-25T17:22:00.629Z,17.70
2018-09-25T17:24:35.196Z,17.50
2018-09-25T17:27:10.385Z,17.30
2018-09-25T17:29:44.983Z,17.20
2018-09-25T17:32:19.728Z,17.00
2018-09-25T17:34:54.590Z,16.80
2018-09-25T17:37:33.210Z,16.70
2018-09-25T17:40:07.865Z,16.60
2018-09-25T17:42:42.608Z,16.50
2018-09-25T17:45:16.958Z,16.50
2018-09-25T17:47:51.405Z,16.50
2018-09-25T17:50:25.935Z,16.40
2018-09-25T17:53:00.456Z,16.40
2018-09-25T17:55:35.017Z,16.40
2018-09-25T17:58:09.703Z,16.30
2018-09-25T18:00:44.221Z,16.20
2018-09-25T18:03:19.420Z,16.20
2018-09-25T18:05:55.289Z,16.10
2018-09-25T18:08:30.181Z,16.10
2018-09-25T18:11:04.772Z,16.00
2018-09-25T18:13:39.359Z,15.90
2018-09-25T18:16:13.855Z,15.60
2018-09-25T18:18:48.440Z,15.60
2018-09-25T18:21:23.007Z,15.50
2018-09-25T18:23:57.649Z,15.60
2018-09-25T18:26:32.325Z,15.60
2018-09-25T18:29:07.092Z,15.60
2018-09-25T18:31:41.548Z,15.40
2018-09-25T18:34:16.224Z,15.30
2018-09-25T18:36:50.686Z,15.20
2018-09-25T18:39:25.021Z,15.10
2018-09-25T18:41:59.512Z,15.00
2018-09-25T18:44:34.244Z,14.90
2018-09-25T18:47:08.833Z,14.80
2018-09-25T18:49:43.352Z,14.70
2018-09-25T18:52:17.867Z,14.60
2018-09-25T18:54:52.468Z,14.60
2018-09-25T18:57:26.836Z,14.50
2018-09-25T19:00:01.942Z,14.40
2018-09-25T19:02:37.132Z,14.40
2018-09-25T19:05:12.008Z,14.30
2018-09-25T19:07:46.680Z,14.20
2018-09-25T19:10:21.201Z,14.20
2018-09-25T19:12:55.689Z,14.20
2018-09-25T19:15:30.684Z,14.10
2018-09-25T19:18:05.240Z,14.00
2018-09-25T19:20:39.754Z,14.00
2018-09-25T19:23:14.405Z,14.00
2018-09-25T19:25:48.956Z,14.00
2018-09-25T19:28:23.433Z,13.90
2018-09-25T19:30:58.368Z,13.90
2018-09-25T19:33:32.700Z,13.80
2018-09-25T19:36:08.289Z,13.70
2018-09-25T19:38:42.896Z,13.60
2018-09-25T19:41:17.393Z,13.60
2018-09-25T19:43:51.892Z,13.50
2018-09-25T19:46:26.328Z,13.50
2018-09-25T19:49:00.988Z,13.60
2018-09-25T19:51:35.476Z,13.60
2018-09-25T19:54:09.816Z,13.50
2018-09-25T19:56:45.469Z,13.30
2018-09-25T19:59:19.909Z,13.30
2018-09-25T20:01:54.922Z,13.20
2018-09-25T20:04:29.568Z,13.10
2018-09-25T20:07:04.154Z,13.10
2018-09-25T20:09:38.492Z,13.00
2018-09-25T20:12:13.084Z,13.00
2018-09-25T20:14:47.582Z,13.00
2018-09-25T20:17:22.311Z,13.00
2018-09-25T20:20:03.687Z,13.00
2018-09-25T20:22:38.204Z,12.90
2018-09-25T20:25:12.788Z,12.90
2018-09-25T20:27:47.284Z,12.80
2018-09-25T20:30:21.744Z,12.70
2018-09-25T20:32:56.625Z,12.60
2018-09-25T20:35:31.131Z,12.50
2018-09-25T20:38:05.923Z,12.40
2018-09-25T20:40:40.373Z,12.60
2018-09-25T20:43:15.068Z,12.50
2018-09-25T20:45:49.644Z,12.60
2018-09-25T20:48:24.502Z,12.50
2018-09-25T20:50:58.824Z,12.30
2018-09-25T20:53:33.520Z,12.20
2018-09-25T20:56:08.115Z,12.10
2018-09-25T20:58:42.831Z,12.10
2018-09-25T21:01:17.297Z,12.00
2018-09-25T21:03:52.574Z,11.90
2018-09-25T21:06:27.204Z,12.00
2018-09-25T21:09:02.917Z,11.90
2018-09-25T21:11:37.294Z,11.90
2018-09-25T21:14:11.774Z,11.80
2018-09-25T21:16:46.347Z,11.80
2018-09-25T21:19:21.168Z,11.70
2018-09-25T21:21:55.653Z,11.80
2018-09-25T21:24:30.149Z,11.60
2018-09-25T21:27:04.639Z,11.60
2018-09-25T21:29:39.276Z,11.50
2018-09-25T21:32:13.741Z,11.50
2018-09-25T21:34:48.709Z,11.50
2018-09-25T21:37:25.197Z,11.50
2018-09-25T21:39:59.848Z,11.60
2018-09-25T21:42:34.508Z,11.60
2018-09-25T21:45:09.105Z,11.50
2018-09-25T21:47:43.688Z,11.40
2018-09-25T21:50:19.004Z,11.30
2018-09-25T21:52:53.500Z,11.20
2018-09-25T21:55:28.109Z,11.10
2018-09-25T21:58:02.535Z,11.00
2018-09-25T22:00:37.036Z,11.00
2018-09-25T22:03:11.521Z,11.00
2018-09-25T22:05:46.664Z,11.00
2018-09-25T22:08:21.028Z,10.90
2018-09-25T22:10:55.633Z,10.80
2018-09-25T22:13:29.983Z,10.70
2018-09-25T22:16:04.366Z,10.90
2018-09-25T22:18:38.760Z,11.00
2018-09-25T22:21:13.463Z,10.80
2018-09-25T22:23:47.917Z,10.80
2018-09-25T22:26:22.393Z,10.70
2018-09-25T22:28:56.895Z,10.70
2018-09-25T22:31:31.341Z,10.60
2018-09-25T22:34:06.031Z,10.60
2018-09-25T22:36:40.748Z,10.60
2018-09-25T22:39:15.540Z,10.50
2018-09-25T22:41:49.956Z,10.50
2018-09-25T22:44:24.648Z,10.50
2018-09-25T22:46:59.331Z,10.40
2018-09-25T22:49:33.929Z,10.40
2018-09-25T22:52:09.013Z,10.40
2018-09-25T22:54:43.511Z,10.30
2018-09-25T22:57:18.058Z,10.20
2018-09-25T22:59:52.559Z,10.10
2018-09-25T23:02:27.155Z,10.10
2018-09-25T23:05:01.620Z,10.10
2018-09-25T23:07:36.900Z,10.00
2018-09-25T23:10:11.525Z,10.00
2018-09-25T23:12:46.097Z,9.90
2018-09-25T23:15:20.564Z,9.80
2018-09-25T23:17:54.938Z,9.80
2018-09-25T23:20:29.603Z,9.80
2018-09-25T23:23:04.363Z,9.70
2018-09-25T23:25:38.832Z,9.70
2018-09-25T23:28:14.744Z,9.70
2018-09-25T23:30:49.208Z,9.80
2018-09-25T23:33:23.687Z,9.90
2018-09-25T23:35:58.288Z,9.90
2018-09-25T23:38:33.197Z,9.80
2018-09-25T23:41:07.808Z,9.70
2018-09-25T23:43:45.175Z,9.60
2018-09-25T23:46:49.733Z,9.50
2018-09-25T23:49:21.681Z,9.60
2018-09-25T23:51:59.004Z,9.50
2018-09-25T23:55:02.132Z,9.50
2018-09-25T23:57:35.916Z,9.50
